Time;durP1;ratioP1;P1;durP2;ratioP2;P2;SDS_P1;SDS_P2;PMS_P1;PMS_P2;Temp;Humidity;BMP_temperature;BMP_pressure;BME280_temperature;BME280_humidity;BME280_pressure;Samples;Min_cycle;Max_cycle;Signal;HPM_P1;HPM_P2
2023/08/22 00:01:50;;;;;;;1.17;1.10;;;20.20;99.90;;;;;;4973752;28;20439;-86
2023/08/22 00:04:17;;;;;;;3.93;2.17;;;20.20;99.90;;;;;;4982059;28;20459;-86
2023/08/22 00:12:08;;;;;;;1.80;1.70;;;20.20;99.90;;;;;;5559890;23;20461;-83
2023/08/22 00:14:35;;;;;;;1.87;1.77;;;20.10;99.90;;;;;;4994094;28;20411;-86
2023/08/22 00:17:02;;;;;;;1.40;1.30;;;20.10;99.90;;;;;;4967706;28;20465;-83
2023/08/22 00:19:29;;;;;;;0.70;0.70;;;20.00;99.90;;;;;;4998423;28;20479;-85
2023/08/22 00:21:56;;;;;;;1.60;1.50;;;20.20;99.90;;;;;;4995015;28;21501;-86
2023/08/22 00:24:24;;;;;;;1.20;1.10;;;20.20;99.90;;;;;;4994179;28;20447;-83
2023/08/22 00:26:55;;;;;;;0.97;0.97;;;20.20;99.90;;;;;;4999176;28;20543;-85
2023/08/22 00:29:22;;;;;;;2.40;1.20;;;20.10;99.90;;;;;;4987735;28;20468;-86
2023/08/22 00:31:49;;;;;;;2.20;2.10;;;20.20;99.90;;;;;;4996970;28;20501;-86
2023/08/22 00:34:16;;;;;;;1.60;1.50;;;20.10;99.90;;;;;;5004963;28;20822;-85
2023/08/22 00:36:43;;;;;;;1.27;1.27;;;20.30;99.90;;;;;;4979473;28;20443;-85
2023/08/22 00:39:09;;;;;;;2.60;2.50;;;20.20;99.90;;;;;;4986238;28;20476;-87
2023/08/22 00:41:36;;;;;;;1.97;1.87;;;20.00;99.90;;;;;;4974393;28;20500;-89
2023/08/22 00:44:03;;;;;;;1.87;1.77;;;20.10;99.90;;;;;;4982759;28;20546;-87
2023/08/22 00:46:30;;;;;;;1.33;1.33;;;20.10;99.90;;;;;;4982100;28;20451;-87
2023/08/22 00:48:58;;;;;;;2.53;1.13;;;20.10;99.90;;;;;;4981480;28;20772;-87
2023/08/22 00:51:25;;;;;;;1.23;1.13;;;20.00;99.90;;;;;;4969885;28;20714;-86
2023/08/22 00:53:52;;;;;;;1.07;1.00;;;20.00;99.90;;;;;;4987073;28;20508;-87
2023/08/22 00:56:19;;;;;;;0.80;0.80;;;20.00;99.90;;;;;;4978219;28;20500;-84
2023/08/22 00:58:47;;;;;;;1.40;1.00;;;20.00;99.90;;;;;;4992557;28;20445;-86
2023/08/22 01:01:14;;;;;;;0.80;0.80;;;19.90;99.90;;;;;;4989751;28;20446;-89
2023/08/22 01:03:41;;;;;;;1.43;1.23;;;19.90;99.90;;;;;;4992654;28;20439;-88
2023/08/22 01:06:14;;;;;;;1.67;1.57;;;19.90;99.90;;;;;;4977751;28;20575;-90
2023/08/22 01:08:48;;;;;;;2.00;1.50;;;20.00;99.90;;;;;;4980259;28;20408;-84
2023/08/22 01:11:24;;;;;;;0.87;0.87;;;19.90;99.90;;;;;;4968406;28;20502;-84
2023/08/22 01:13:54;;;;;;;1.00;1.00;;;19.70;99.90;;;;;;4985052;28;20440;-87
2023/08/22 01:16:23;;;;;;;1.87;1.77;;;19.80;99.90;;;;;;4983278;28;20447;-86
2023/08/22 01:18:50;;;;;;;5.07;2.00;;;19.80;99.90;;;;;;4986172;28;20441;-88
2023/08/22 01:21:19;;;;;;;1.97;1.60;;;19.80;99.90;;;;;;4986737;28;20437;-86
2023/08/22 01:23:46;;;;;;;1.67;1.57;;;19.70;99.90;;;;;;4989979;28;20427;-88
2023/08/22 01:26:14;;;;;;;1.57;1.47;;;19.70;99.90;;;;;;4975108;28;20608;-86
2023/08/22 01:28:45;;;;;;;1.77;1.67;;;19.70;99.90;;;;;;4980949;28;20482;-88
2023/08/22 01:31:21;;;;;;;1.77;1.67;;;19.60;99.90;;;;;;4968602;28;20543;-86
2023/08/22 01:33:48;;;;;;;1.63;1.53;;;19.60;99.90;;;;;;4970530;28;20555;-87
2023/08/22 01:36:17;;;;;;;2.30;2.20;;;19.60;99.90;;;;;;4995433;28;20669;-88
2023/08/22 01:38:48;;;;;;;0.80;0.80;;;19.50;99.90;;;;;;4992282;28;20439;-87
2023/08/22 01:41:16;;;;;;;4.00;1.73;;;19.50;99.90;;;;;;4981264;28;20437;-88
2023/08/22 01:43:44;;;;;;;2.10;2.00;;;19.50;99.90;;;;;;4968088;28;20681;-86
2023/08/22 01:46:11;;;;;;;1.13;1.00;;;19.50;99.90;;;;;;4991316;28;20512;-87
2023/08/22 01:48:38;;;;;;;1.60;1.50;;;19.40;99.90;;;;;;4997326;28;20431;-87
2023/08/22 01:51:06;;;;;;;1.77;1.67;;;19.80;99.90;;;;;;4994416;28;20473;-85
2023/08/22 01:53:33;;;;;;;1.67;1.57;;;19.30;99.90;;;;;;4991337;28;20477;-84
2023/08/22 01:56:00;;;;;;;1.23;1.23;;;19.40;99.90;;;;;;4981346;28;20476;-85
2023/08/22 01:58:27;;;;;;;4.13;1.97;;;19.20;99.90;;;;;;4990967;28;20490;-86
2023/08/22 02:00:54;;;;;;;1.60;1.50;;;19.20;99.90;;;;;;4974173;28;20432;-85
2023/08/22 02:03:23;;;;;;;0.73;0.73;;;19.30;99.90;;;;;;4960234;28;20427;-87
2023/08/22 02:05:50;;;;;;;2.20;1.93;;;19.20;99.90;;;;;;4986278;28;20527;-87
2023/08/22 02:08:18;;;;;;;1.70;1.60;;;19.30;99.90;;;;;;4979292;28;20449;-86
2023/08/22 02:10:44;;;;;;;2.50;2.37;;;19.20;99.90;;;;;;4974919;28;20487;-83
2023/08/22 02:13:11;;;;;;;1.50;1.40;;;19.30;99.90;;;;;;4966871;28;20457;-86
2023/08/22 02:15:38;;;;;;;1.70;1.10;;;19.50;99.90;;;;;;4970884;28;20455;-85
2023/08/22 02:18:06;;;;;;;2.33;2.23;;;19.10;99.90;;;;;;4976034;28;20469;-89
2023/08/22 02:20:33;;;;;;;1.23;1.13;;;19.30;99.90;;;;;;4981082;28;20452;-88
2023/08/22 02:23:02;;;;;;;0.97;0.93;;;19.10;99.90;;;;;;4986427;28;20652;-86
2023/08/22 02:25:32;;;;;;;1.00;1.00;;;19.00;99.90;;;;;;4986883;28;20410;-85
2023/08/22 02:27:59;;;;;;;1.43;1.33;;;19.00;99.90;;;;;;4974654;28;20507;-84
2023/08/22 02:30:26;;;;;;;0.90;0.90;;;19.00;99.90;;;;;;4991935;28;20547;-88
2023/08/22 02:32:53;;;;;;;1.60;1.50;;;18.90;99.90;;;;;;4986012;28;20792;-85
2023/08/22 02:35:20;;;;;;;1.93;1.63;;;18.90;99.90;;;;;;4975415;28;20452;-83
2023/08/22 02:37:49;;;;;;;1.60;1.07;;;18.90;99.90;;;;;;4987786;28;20459;-86
2023/08/22 02:40:16;;;;;;;1.70;1.60;;;18.80;99.90;;;;;;4994443;28;20414;-86
2023/08/22 02:42:44;;;;;;;1.43;0.70;;;18.80;99.90;;;;;;4983667;28;20480;-86
2023/08/22 02:45:10;;;;;;;2.60;1.03;;;18.80;99.90;;;;;;4978985;28;20444;-84
2023/08/22 02:53:17;;;;;;;1.13;1.00;;;18.70;99.90;;;;;;5586047;23;20500;-82
2023/08/22 02:58:27;;;;;;;2.03;1.93;;;18.70;99.90;;;;;;5082066;23;20463;-82
2023/08/22 03:03:31;;;;;;;1.13;1.07;;;18.70;99.90;;;;;;5609603;23;20446;-82
2023/08/22 03:05:59;;;;;;;1.00;0.90;;;19.50;99.90;;;;;;5337530;23;20560;-83
2023/08/22 03:08:27;;;;;;;0.60;0.60;;;18.80;99.90;;;;;;4973631;28;20446;-86
2023/08/22 03:10:59;;;;;;;3.60;3.40;;;18.80;99.90;;;;;;5078967;23;20497;-86
2023/08/22 03:21:36;;;;;;;1.33;1.23;;;18.80;99.90;;;;;;5908201;23;20404;-84
2023/08/22 03:29:27;;;;;;;0.90;0.90;;;18.70;99.90;;;;;;5535799;23;20486;-87
2023/08/22 03:31:57;;;;;;;2.80;2.10;;;18.70;99.90;;;;;;4984793;28;20535;-89
2023/08/22 03:34:24;;;;;;;1.77;1.67;;;18.70;99.90;;;;;;5270515;23;21649;-87
2023/08/22 03:36:51;;;;;;;0.80;0.80;;;18.80;99.90;;;;;;5390550;23;20588;-90
2023/08/22 03:39:18;;;;;;;2.43;2.33;;;18.80;99.90;;;;;;4969992;28;20513;-87
2023/08/22 03:41:45;;;;;;;3.07;2.03;;;18.70;99.90;;;;;;4980190;28;20436;-89
2023/08/22 03:44:13;;;;;;;1.37;1.10;;;18.70;99.90;;;;;;4990773;28;20769;-86
2023/08/22 03:46:40;;;;;;;2.37;2.23;;;18.70;99.90;;;;;;4974523;28;20464;-87
2023/08/22 03:54:25;;;;;;;2.40;2.20;;;18.60;99.90;;;;;;5484356;23;20545;-88
2023/08/22 03:56:52;;;;;;;1.73;1.33;;;18.60;99.90;;;;;;4975931;28;20502;-86
2023/08/22 03:59:19;;;;;;;1.90;1.80;;;18.60;99.90;;;;;;4952739;28;20645;-85
2023/08/22 04:01:45;;;;;;;1.07;1.07;;;18.90;99.90;;;;;;5170574;23;20567;-85
2023/08/22 04:04:14;;;;;;;3.27;1.70;;;18.70;99.90;;;;;;5000754;28;20453;-83
2023/08/22 04:06:41;;;;;;;2.07;1.97;;;18.70;99.90;;;;;;4995850;28;20433;-88
2023/08/22 04:09:09;;;;;;;1.87;1.77;;;18.80;99.90;;;;;;4990643;28;20448;-88
2023/08/22 04:11:37;;;;;;;5.93;1.97;;;18.80;99.90;;;;;;5224411;23;20549;-89
2023/08/22 04:14:06;;;;;;;1.33;1.30;;;19.20;99.90;;;;;;4962044;28;20509;-88
2023/08/22 04:16:33;;;;;;;3.07;2.40;;;19.00;99.90;;;;;;4958855;29;20480;-88
2023/08/22 04:19:00;;;;;;;2.50;2.40;;;19.10;99.90;;;;;;5113885;23;21176;-82
2023/08/22 04:21:27;;;;;;;1.67;1.57;;;19.10;99.90;;;;;;4980604;28;20475;-85
2023/08/22 04:23:56;;;;;;;2.40;2.30;;;19.40;99.90;;;;;;4974804;28;20697;-84
2023/08/22 04:26:23;;;;;;;1.17;1.17;;;19.50;99.90;;;;;;4980578;28;20734;-79
2023/08/22 04:28:50;;;;;;;2.30;1.83;;;19.60;99.90;;;;;;4971226;28;20437;-85
2023/08/22 04:31:17;;;;;;;1.83;1.73;;;19.80;99.90;;;;;;4959487;28;20599;-82
2023/08/22 04:33:44;;;;;;;1.43;1.43;;;20.20;99.90;;;;;;4978884;28;20529;-80
2023/08/22 04:36:11;;;;;;;1.63;1.53;;;20.00;99.90;;;;;;4981049;28;20502;-79
2023/08/22 04:38:38;;;;;;;1.53;1.43;;;20.10;99.90;;;;;;4987329;28;20601;-85
2023/08/22 04:41:05;;;;;;;4.00;2.50;;;20.20;99.90;;;;;;4973637;28;20748;-84
2023/08/22 04:43:32;;;;;;;1.90;1.57;;;20.70;99.90;;;;;;4979751;28;20512;-88
2023/08/22 04:46:02;;;;;;;2.57;2.37;;;20.30;99.90;;;;;;4969974;28;20781;-84
2023/08/22 04:48:29;;;;;;;1.03;0.90;;;20.20;99.90;;;;;;4986115;28;20621;-87
2023/08/22 04:50:56;;;;;;;1.20;1.10;;;20.20;99.90;;;;;;4976968;28;20473;-83
2023/08/22 04:53:24;;;;;;;1.50;1.43;;;20.20;99.90;;;;;;4974480;28;20477;-82
2023/08/22 04:55:51;;;;;;;1.77;1.67;;;20.20;99.90;;;;;;5029991;23;20474;-83
2023/08/22 04:58:18;;;;;;;1.10;0.93;;;20.10;99.90;;;;;;4968614;28;20470;-85
2023/08/22 05:00:45;;;;;;;1.00;1.00;;;20.70;99.90;;;;;;4963528;29;20464;-84
2023/08/22 05:03:15;;;;;;;2.60;2.40;;;20.40;99.90;;;;;;4978393;28;20521;-87
2023/08/22 05:05:42;;;;;;;1.57;1.47;;;20.60;99.90;;;;;;4974655;28;20445;-84
2023/08/22 05:08:09;;;;;;;2.60;2.50;;;20.60;99.90;;;;;;4975679;28;20499;-86
2023/08/22 05:10:36;;;;;;;2.80;2.60;;;20.60;99.90;;;;;;4973332;28;20493;-83
2023/08/22 05:13:03;;;;;;;1.73;1.63;;;20.60;99.90;;;;;;4974368;28;20467;-82
2023/08/22 05:15:30;;;;;;;3.47;2.60;;;20.60;99.90;;;;;;4968449;28;20788;-82
2023/08/22 05:17:57;;;;;;;2.23;2.10;;;20.80;99.90;;;;;;4974608;28;20476;-85
2023/08/22 05:20:24;;;;;;;2.03;1.83;;;20.80;99.90;;;;;;4952785;29;20469;-83
2023/08/22 05:22:50;;;;;;;1.77;1.67;;;20.90;99.90;;;;;;4977213;28;20448;-81
2023/08/22 05:25:18;;;;;;;4.47;4.10;;;21.00;99.90;;;;;;4975041;28;20441;-88
2023/08/22 05:27:45;;;;;;;1.80;1.70;;;21.10;99.90;;;;;;4963718;29;20437;-79
2023/08/22 05:30:12;;;;;;;1.70;1.60;;;21.10;99.90;;;;;;4979343;28;20490;-82
2023/08/22 05:32:39;;;;;;;1.37;1.37;;;21.10;99.90;;;;;;4971586;28;20512;-82
2023/08/22 05:35:07;;;;;;;1.93;1.83;;;21.20;99.90;;;;;;4987157;28;20440;-77
2023/08/22 05:37:35;;;;;;;3.33;3.10;;;21.30;99.90;;;;;;4975951;28;20480;-83
2023/08/22 05:40:03;;;;;;;2.20;2.00;;;21.40;99.90;;;;;;4978392;28;20453;-84
2023/08/22 05:42:30;;;;;;;1.27;1.17;;;21.50;99.90;;;;;;4975800;28;20411;-86
2023/08/22 05:44:57;;;;;;;0.90;0.90;;;21.70;99.90;;;;;;4974978;28;20432;-83
2023/08/22 05:47:24;;;;;;;1.70;1.60;;;21.80;99.90;;;;;;4974295;28;20505;-82
2023/08/22 05:49:51;;;;;;;1.87;1.77;;;21.80;99.90;;;;;;4971285;28;20725;-86
2023/08/22 05:52:19;;;;;;;0.83;0.83;;;22.10;99.90;;;;;;4954903;29;20532;-86
2023/08/22 05:54:46;;;;;;;1.13;1.13;;;22.20;99.90;;;;;;4978242;28;20453;-86
2023/08/22 05:57:13;;;;;;;1.43;1.33;;;22.30;99.90;;;;;;4980995;28;20460;-85
2023/08/22 05:59:40;;;;;;;1.70;1.60;;;22.60;99.90;;;;;;4960080;28;20419;-82
2023/08/22 06:02:07;;;;;;;2.03;1.93;;;22.40;99.90;;;;;;4970385;28;20419;-86
2023/08/22 06:04:34;;;;;;;2.37;2.27;;;22.50;99.90;;;;;;4978692;28;20448;-86
2023/08/22 06:07:01;;;;;;;1.53;1.43;;;22.70;99.90;;;;;;4968955;28;20445;-88
2023/08/22 06:09:31;;;;;;;2.87;2.77;;;22.80;99.90;;;;;;4969999;28;20424;-86
2023/08/22 06:11:58;;;;;;;1.63;1.53;;;22.90;99.90;;;;;;4971563;28;20500;-81
2023/08/22 06:14:25;;;;;;;2.17;2.07;;;23.10;99.90;;;;;;4986563;28;20434;-89
2023/08/22 06:16:52;;;;;;;1.33;1.23;;;23.20;99.90;;;;;;4974234;28;20642;-87
2023/08/22 06:19:19;;;;;;;2.03;1.93;;;23.50;99.90;;;;;;4950355;29;20469;-83
2023/08/22 06:21:47;;;;;;;1.17;1.17;;;23.80;99.90;;;;;;4972518;28;20497;-80
2023/08/22 06:24:13;;;;;;;6.20;3.70;;;23.40;99.90;;;;;;4982826;28;20504;-87
2023/08/22 06:26:41;;;;;;;2.10;2.00;;;23.70;99.90;;;;;;4975601;28;20455;-86
2023/08/22 06:29:08;;;;;;;2.70;2.50;;;23.80;99.90;;;;;;4969145;28;20484;-87
2023/08/22 06:31:36;;;;;;;1.10;1.10;;;23.70;99.90;;;;;;5375611;23;20721;-83
2023/08/22 06:34:03;;;;;;;2.30;2.20;;;24.10;99.90;;;;;;4970414;28;20453;-84
2023/08/22 06:36:30;;;;;;;1.20;1.10;;;24.10;99.90;;;;;;5056663;23;20428;-87
2023/08/22 06:38:57;;;;;;;1.73;1.63;;;25.30;99.90;;;;;;4982119;28;20508;-86
2023/08/22 06:41:24;;;;;;;3.60;3.40;;;24.60;99.90;;;;;;4979054;28;20511;-85
2023/08/22 06:43:51;;;;;;;1.50;1.40;;;24.80;99.90;;;;;;4966283;28;20452;-83
2023/08/22 06:46:21;;;;;;;1.43;1.37;;;24.70;99.90;;;;;;5266634;23;20527;-85
2023/08/22 06:48:51;;;;;;;2.40;1.90;;;24.60;99.90;;;;;;4964308;28;20428;-87
2023/08/22 06:51:18;;;;;;;2.13;2.03;;;25.10;99.90;;;;;;5106880;23;20451;-86
2023/08/22 06:53:45;;;;;;;1.00;1.00;;;25.50;99.90;;;;;;4968206;28;20417;-85
2023/08/22 06:56:12;;;;;;;2.20;2.10;;;26.00;99.90;;;;;;4966207;28;20530;-85
2023/08/22 07:01:10;;;;;;;1.10;1.10;;;26.40;99.90;;;;;;4977181;28;20476;-79
2023/08/22 07:03:37;;;;;;;1.27;1.27;;;26.80;99.90;;;;;;4988081;23;20560;-89
2023/08/22 07:06:04;;;;;;;2.13;2.00;;;26.80;99.90;;;;;;4955836;28;20421;-87
2023/08/22 07:13:50;;;;;;;1.60;1.50;;;27.90;98.40;;;;;;4976080;23;20492;-87
2023/08/22 07:16:18;;;;;;;1.60;1.50;;;28.40;96.60;;;;;;5037661;23;20487;-87
2023/08/22 07:18:45;;;;;;;1.30;1.30;;;28.40;95.70;;;;;;4963237;29;20493;-88
2023/08/22 07:21:11;;;;;;;1.90;1.80;;;28.90;94.00;;;;;;4952915;29;20574;-81
2023/08/22 07:23:39;;;;;;;1.70;1.60;;;29.40;91.40;;;;;;4959392;28;20516;-84
2023/08/22 07:26:06;;;;;;;1.77;1.67;;;29.70;90.10;;;;;;5111565;23;21644;-87
2023/08/22 07:28:35;;;;;;;2.33;2.13;;;29.70;88.80;;;;;;4965542;28;20429;-84
2023/08/22 07:31:06;;;;;;;1.20;1.20;;;30.30;89.00;;;;;;4988018;28;20444;-85
2023/08/22 07:33:33;;;;;;;1.60;1.50;;;30.50;86.20;;;;;;4996497;28;20435;-86
2023/08/22 07:36:02;;;;;;;1.57;1.47;;;30.40;85.20;;;;;;5005365;28;20515;-81
2023/08/22 07:38:29;;;;;;;1.90;1.80;;;31.00;83.40;;;;;;4993263;28;20410;-88
2023/08/22 07:40:56;;;;;;;2.17;2.07;;;31.60;78.10;;;;;;4990063;28;20449;-88
2023/08/22 07:43:23;;;;;;;1.80;1.70;;;32.10;76.10;;;;;;4983920;28;20508;-86
2023/08/22 07:45:50;;;;;;;2.47;2.37;;;32.10;75.60;;;;;;4979486;28;20440;-82
2023/08/22 07:48:17;;;;;;;1.97;1.87;;;31.50;74.10;;;;;;4985279;28;20436;-84
2023/08/22 07:50:44;;;;;;;1.80;1.70;;;32.30;72.00;;;;;;4988663;28;20452;-89
2023/08/22 07:53:10;;;;;;;1.50;1.40;;;33.10;71.50;;;;;;4990095;28;20547;-85
2023/08/22 07:55:37;;;;;;;1.40;1.40;;;32.40;69.90;;;;;;4988552;28;20489;-89
2023/08/22 07:58:04;;;;;;;1.83;1.73;;;32.20;70.50;;;;;;4978060;28;20521;-87
2023/08/22 08:00:31;;;;;;;4.23;4.03;;;32.60;69.40;;;;;;4987491;28;20509;-89
2023/08/22 08:02:58;;;;;;;1.80;1.70;;;32.70;68.90;;;;;;4985839;28;20444;-86
2023/08/22 08:08:07;;;;;;;1.50;1.40;;;32.90;65.10;;;;;;5148806;23;20489;-81
2023/08/22 08:10:36;;;;;;;2.73;2.53;;;33.00;64.80;;;;;;4984954;28;20474;-85
2023/08/22 08:13:03;;;;;;;1.17;1.17;;;32.80;65.30;;;;;;4978730;28;20852;-84
2023/08/22 08:15:30;;;;;;;1.73;1.63;;;32.80;65.10;;;;;;4976755;28;20449;-80
2023/08/22 08:17:59;;;;;;;1.27;1.27;;;32.90;64.00;;;;;;4981082;28;20459;-83
2023/08/22 08:20:26;;;;;;;2.87;2.77;;;32.80;64.40;;;;;;4983531;28;20442;-85
2023/08/22 08:25:28;;;;;;;1.70;1.60;;;32.70;65.20;;;;;;4957274;28;20472;-85
2023/08/22 08:27:55;;;;;;;1.73;1.63;;;33.60;64.60;;;;;;4951471;29;20671;-87
2023/08/22 08:30:22;;;;;;;1.20;1.20;;;33.60;63.60;;;;;;4952318;29;20470;-85
2023/08/22 08:32:49;;;;;;;2.43;2.33;;;33.20;62.60;;;;;;4932466;29;20525;-82
2023/08/22 08:54:04;;;;;;;5.17;4.80;;;33.90;60.40;;;;;;5096422;23;20547;-86
2023/08/22 08:56:32;;;;;;;1.83;1.73;;;33.40;60.70;;;;;;5303491;23;20794;-83
2023/08/22 09:04:11;;;;;;;1.33;1.33;;;33.60;60.30;;;;;;4967231;28;20476;-88
2023/08/22 09:06:38;;;;;;;1.40;1.40;;;33.00;61.60;;;;;;4968408;28;20435;-85
2023/08/22 09:09:08;;;;;;;1.77;1.67;;;33.80;61.50;;;;;;5165438;23;20859;-84
2023/08/22 09:11:40;;;;;;;2.23;2.13;;;33.00;61.30;;;;;;5400313;23;20565;-86
2023/08/22 09:14:19;;;;;;;1.80;1.70;;;33.80;60.60;;;;;;5265688;23;20607;-84
2023/08/22 09:16:47;;;;;;;1.70;1.60;;;33.60;62.10;;;;;;5029228;23;20864;-84
2023/08/22 09:19:14;;;;;;;1.40;1.40;;;33.60;60.30;;;;;;5289356;23;20507;-86
2023/08/22 09:21:59;;;;;;;2.37;2.27;;;33.20;59.90;;;;;;5055352;23;20738;-87
2023/08/22 09:24:29;;;;;;;1.73;1.63;;;33.70;59.40;;;;;;5845251;23;21570;-83
2023/08/22 09:29:42;;;;;;;1.80;1.70;;;33.80;59.90;;;;;;5026157;23;20547;-81
2023/08/22 09:32:09;;;;;;;2.17;2.07;;;33.10;60.20;;;;;;5036379;23;20520;-86
2023/08/22 09:34:36;;;;;;;1.73;1.63;;;32.00;64.40;;;;;;5100228;23;20556;-80
2023/08/22 09:37:03;;;;;;;1.90;1.80;;;31.90;64.40;;;;;;4955694;29;20441;-84
2023/08/22 09:39:32;;;;;;;1.40;1.30;;;31.80;65.70;;;;;;5330352;23;20540;-86
2023/08/22 09:42:03;;;;;;;1.77;1.67;;;31.80;66.10;;;;;;4933651;29;20484;-84
2023/08/22 09:44:30;;;;;;;3.93;3.73;;;32.20;66.50;;;;;;5639953;23;20886;-87
2023/08/22 09:46:57;;;;;;;6.40;2.90;;;32.20;68.10;;;;;;5372446;23;20511;-79
2023/08/22 09:52:03;;;;;;;1.70;1.60;;;31.80;65.20;;;;;;5029575;23;20518;-87
2023/08/22 09:54:30;;;;;;;2.23;2.13;;;31.50;67.40;;;;;;5007254;28;20506;-82
2023/08/22 09:56:57;;;;;;;2.07;1.97;;;31.10;67.10;;;;;;5003583;28;20453;-87
2023/08/22 09:59:26;;;;;;;1.60;1.50;;;31.00;69.50;;;;;;5001740;28;20462;-86
2023/08/22 10:01:55;;;;;;;1.70;1.60;;;31.90;68.00;;;;;;5384707;23;20462;-86
2023/08/22 10:07:04;;;;;;;1.87;1.77;;;31.70;67.10;;;;;;4990217;23;20548;-85
2023/08/22 10:09:32;;;;;;;2.17;2.07;;;31.50;66.20;;;;;;5143484;23;20502;-90
2023/08/22 10:12:02;;;;;;;2.00;1.87;;;31.40;67.20;;;;;;4974695;28;20509;-85
2023/08/22 10:14:33;;;;;;;1.93;1.83;;;32.20;70.10;;;;;;4973753;28;20480;-86
2023/08/22 10:17:05;;;;;;;1.10;1.10;;;31.30;68.40;;;;;;4969472;28;20533;-87
2023/08/22 10:19:32;;;;;;;1.60;1.50;;;31.10;69.00;;;;;;4959823;29;20449;-84
2023/08/22 10:22:13;;;;;;;1.70;1.60;;;30.80;70.10;;;;;;4978690;28;20445;-83
2023/08/22 10:24:41;;;;;;;1.60;1.50;;;31.00;70.10;;;;;;4957966;28;20461;-86
2023/08/22 10:27:14;;;;;;;1.40;1.40;;;30.70;69.80;;;;;;4974787;28;20442;-85
2023/08/22 10:29:45;;;;;;;2.00;1.90;;;30.80;70.60;;;;;;5575550;23;20481;-86
2023/08/22 10:32:22;;;;;;;1.60;1.50;;;30.70;71.40;;;;;;4969194;28;20465;-87
2023/08/22 10:34:48;;;;;;;1.90;1.80;;;30.50;70.70;;;;;;4977162;28;20479;-82
2023/08/22 10:37:22;;;;;;;1.73;1.63;;;30.20;71.80;;;;;;4969232;29;20419;-83
2023/08/22 10:39:50;;;;;;;2.47;2.37;;;30.80;73.10;;;;;;4969158;29;20760;-82
2023/08/22 10:42:25;;;;;;;1.60;1.50;;;30.10;72.40;;;;;;4961074;28;20484;-89
2023/08/22 10:44:56;;;;;;;1.57;1.53;;;30.00;71.80;;;;;;4963945;28;20444;-86
2023/08/22 10:47:28;;;;;;;1.77;1.67;;;30.30;70.80;;;;;;4966819;28;20438;-86
2023/08/22 10:50:01;;;;;;;1.60;1.50;;;30.60;69.60;;;;;;4971954;29;20446;-86
2023/08/22 10:52:43;;;;;;;1.90;1.80;;;30.60;69.60;;;;;;4968255;29;20473;-85
2023/08/22 10:55:12;;;;;;;2.90;2.80;;;30.70;68.10;;;;;;5127744;23;20663;-88
2023/08/22 11:00:22;;;;;;;1.30;1.30;;;30.70;67.30;;;;;;4949996;29;20473;-85
2023/08/22 11:05:40;;;;;;;1.60;1.50;;;30.50;68.30;;;;;;4969205;28;20420;-85
2023/08/22 11:08:09;;;;;;;1.70;1.60;;;30.40;69.70;;;;;;4975785;28;20433;-86
2023/08/22 11:10:38;;;;;;;1.77;1.67;;;30.50;70.50;;;;;;5256327;23;20502;-85
2023/08/22 11:13:08;;;;;;;2.07;1.97;;;30.30;72.20;;;;;;5057412;23;20492;-90
2023/08/22 11:15:37;;;;;;;1.50;1.43;;;30.20;71.10;;;;;;4968577;29;20468;-83
2023/08/22 11:20:54;;;;;;;1.63;1.53;;;30.30;69.80;;;;;;5067080;23;20497;-84
2023/08/22 11:23:22;;;;;;;1.73;1.63;;;30.40;70.00;;;;;;5000661;28;20452;-84
2023/08/22 11:25:49;;;;;;;2.03;1.93;;;30.90;69.10;;;;;;5293844;23;20531;-88
2023/08/22 11:28:16;;;;;;;1.80;1.70;;;31.20;68.00;;;;;;5113127;23;20499;-85
2023/08/22 11:30:43;;;;;;;2.10;2.00;;;31.10;67.20;;;;;;5154162;23;20559;-84
2023/08/22 11:33:19;;;;;;;1.63;1.53;;;31.10;67.30;;;;;;4961975;28;20780;-87
2023/08/22 11:35:46;;;;;;;1.90;1.80;;;30.70;69.80;;;;;;4987037;28;20440;-87
2023/08/22 11:38:13;;;;;;;2.00;1.90;;;30.60;68.20;;;;;;4981456;28;20722;-82
2023/08/22 11:43:22;;;;;;;2.10;2.00;;;30.90;68.50;;;;;;5005848;23;20505;-85
2023/08/22 11:45:49;;;;;;;1.10;1.10;;;31.00;68.40;;;;;;5066648;23;20560;-84
2023/08/22 11:48:16;;;;;;;1.93;1.83;;;31.60;68.20;;;;;;4992008;28;20490;-86
2023/08/22 11:50:46;;;;;;;2.37;2.27;;;30.30;67.50;;;;;;4984705;28;20452;-83
2023/08/22 11:53:15;;;;;;;1.73;1.63;;;30.50;68.60;;;;;;5050941;23;20496;-82
2023/08/22 11:55:44;;;;;;;1.63;1.53;;;30.80;68.00;;;;;;5259046;23;20503;-82
2023/08/22 12:00:55;;;;;;;1.27;1.27;;;31.10;66.90;;;;;;5367678;23;20501;-86
2023/08/22 12:03:22;;;;;;;0.97;0.97;;;31.10;67.60;;;;;;4968273;28;20506;-81
2023/08/22 12:05:49;;;;;;;2.00;1.90;;;30.70;68.60;;;;;;4967546;28;20491;-82
2023/08/22 12:08:20;;;;;;;1.83;1.73;;;30.70;68.70;;;;;;4967542;28;20634;-86
2023/08/22 12:10:52;;;;;;;3.10;2.90;;;30.70;68.90;;;;;;5428797;23;20569;-86
2023/08/22 12:13:21;;;;;;;1.43;1.40;;;30.70;69.40;;;;;;4969402;28;20469;-85
2023/08/22 12:15:49;;;;;;;1.70;1.60;;;30.60;68.70;;;;;;5076988;23;20551;-81
2023/08/22 12:18:16;;;;;;;1.40;1.30;;;30.70;69.10;;;;;;4968078;28;20450;-85
2023/08/22 12:20:46;;;;;;;1.60;1.50;;;30.90;66.80;;;;;;4965575;28;20444;-89
2023/08/22 12:23:13;;;;;;;1.60;1.50;;;;;;;;;;4965324;28;20453;-81
2023/08/22 12:25:42;;;;;;;1.77;1.67;;;30.80;67.80;;;;;;4963813;28;20452;-80
2023/08/22 12:28:10;;;;;;;1.67;1.57;;;30.90;67.80;;;;;;4965378;28;20496;-85
2023/08/22 12:30:38;;;;;;;1.43;1.33;;;30.80;67.20;;;;;;4963513;29;20448;-82
2023/08/22 12:33:10;;;;;;;1.50;1.40;;;;;;;;;;4949637;28;20846;-82
2023/08/22 12:35:38;;;;;;;2.00;1.90;;;31.10;67.20;;;;;;4969242;28;20591;-82
2023/08/22 12:38:07;;;;;;;1.83;1.73;;;30.80;66.60;;;;;;4962966;28;20491;-85
2023/08/22 12:40:35;;;;;;;2.33;2.23;;;;;;;;;;4967668;28;20449;-81
2023/08/22 12:45:38;;;;;;;1.70;1.60;;;;;;;;;;5113398;23;20493;-86
2023/08/22 12:50:48;;;;;;;1.87;1.77;;;;;;;;;;5168590;23;20484;-85
2023/08/22 12:53:14;;;;;;;1.07;1.07;;;31.20;66.80;;;;;;5318363;23;20545;-85
2023/08/22 12:55:44;;;;;;;1.17;1.17;;;;;;;;;;5033074;23;20493;-83
2023/08/22 12:58:11;;;;;;;2.47;2.37;;;;;;;;;;5015525;23;20580;-85
2023/08/22 13:03:14;;;;;;;1.60;1.50;;;;;;;;;;5230986;23;20491;-84
2023/08/22 13:05:42;;;;;;;2.53;1.67;;;;;;;;;;5249885;23;20560;-90
2023/08/22 13:08:10;;;;;;;1.60;1.50;;;;;;;;;;4956293;28;20477;-81
2023/08/22 13:10:38;;;;;;;2.33;2.23;;;;;;;;;;5060422;23;20497;-87
2023/08/22 13:13:05;;;;;;;1.93;1.77;;;;;;;;;;5199712;23;20562;-84
2023/08/22 13:15:32;;;;;;;1.50;1.40;;;30.90;64.50;;;;;;4993069;28;20479;-79
2023/08/22 13:17:59;;;;;;;1.87;1.77;;;;;;;;;;4994179;28;20456;-83
2023/08/22 13:20:27;;;;;;;1.40;1.37;;;;;;;;;;5006697;28;20448;-84
2023/08/22 13:22:54;;;;;;;1.77;1.50;;;;;;;;;;5001496;28;20482;-83
2023/08/22 13:25:21;;;;;;;1.50;1.50;;;;;;;;;;5002058;28;20444;-83
2023/08/22 13:27:49;;;;;;;2.10;2.00;;;31.30;62.30;;;;;;5002608;28;20577;-84
2023/08/22 13:30:17;;;;;;;1.47;1.37;;;;;;;;;;5055058;23;20619;-86
2023/08/22 13:32:44;;;;;;;1.33;1.30;;;;;;;;;;5126450;23;20572;-85
2023/08/22 13:35:15;;;;;;;2.03;1.93;;;;;;;;;;4968537;28;20445;-85
2023/08/22 13:37:43;;;;;;;1.73;1.63;;;31.20;61.20;;;;;;4977794;28;20788;-86
2023/08/22 13:40:12;;;;;;;1.60;1.50;;;;;;;;;;5062664;23;20492;-85
2023/08/22 13:42:40;;;;;;;1.13;1.13;;;31.30;65.10;;;;;;5387851;23;21553;-86
2023/08/22 13:45:07;;;;;;;1.17;1.10;;;31.30;62.60;;;;;;4977155;28;20434;-85
2023/08/22 13:47:38;;;;;;;2.73;2.63;;;31.30;63.20;;;;;;4974295;28;20456;-83
2023/08/22 13:50:06;;;;;;;1.60;1.50;;;31.10;63.00;;;;;;4967085;28;20424;-80
2023/08/22 13:52:33;;;;;;;2.13;2.03;;;30.90;64.30;;;;;;4977549;28;20451;-84
2023/08/22 13:55:00;;;;;;;2.53;2.43;;;32.10;65.20;;;;;;4962672;28;20527;-87
2023/08/22 13:57:27;;;;;;;4.03;1.70;;;30.80;63.20;;;;;;5304572;23;20549;-81
2023/08/22 13:59:55;;;;;;;1.80;1.70;;;;;;;;;;4967224;28;20468;-81
2023/08/22 14:02:22;;;;;;;2.40;2.20;;;;;;;;;;4952838;28;20479;-83
2023/08/22 14:04:52;;;;;;;1.10;1.10;;;;;;;;;;4975287;28;20465;-86
2023/08/22 14:07:20;;;;;;;1.00;1.00;;;;;;;;;;4980709;28;20717;-79
2023/08/22 14:09:48;;;;;;;1.10;1.03;;;30.10;64.30;;;;;;4970317;28;20496;-84
2023/08/22 14:12:15;;;;;;;0.90;0.90;;;;;;;;;;5038898;23;20500;-79
2023/08/22 14:14:42;;;;;;;2.27;2.17;;;30.80;65.90;;;;;;4971648;28;20556;-86
2023/08/22 14:17:09;;;;;;;1.30;1.20;;;;;;;;;;4975681;28;20513;-88
2023/08/22 14:19:36;;;;;;;1.53;1.43;;;;;;;;;;4962209;28;20517;-86
2023/08/22 14:22:04;;;;;;;1.30;1.20;;;;;;;;;;5157039;23;20593;-84
2023/08/22 14:24:31;;;;;;;1.37;1.27;;;;;;;;;;4960125;29;20433;-87
2023/08/22 14:26:59;;;;;;;1.50;1.40;;;;;;;;;;4959733;28;20457;-82
2023/08/22 14:29:26;;;;;;;1.30;1.20;;;;;;;;;;4964394;28;20522;-88
2023/08/22 14:31:54;;;;;;;1.03;1.00;;;;;;;;;;4966328;28;20420;-88
2023/08/22 14:34:21;;;;;;;1.20;1.20;;;;;;;;;;5052814;23;20457;-81
2023/08/22 14:36:49;;;;;;;2.30;1.20;;;;;;;;;;4963108;28;20436;-87
2023/08/22 14:39:16;;;;;;;3.03;2.83;;;;;;;;;;4949620;29;20484;-84
2023/08/22 14:41:45;;;;;;;1.67;1.57;;;;;;;;;;4971420;29;20484;-82
2023/08/22 14:44:12;;;;;;;1.10;1.10;;;;;;;;;;5192613;23;20476;-84